-8.45C
пасмурно
пасмурно
Дата и времяТемператураДавление, мм рт.ст.Влажность, %Осадки
МинимумМаксимум
04.12.2022 14:00-8.45C-8.3C78684пасмурно
04.12.2022 17:00-8.29C-7.98C78685пасмурно
04.12.2022 20:00-9.42C-9.1C78688пасмурно
04.12.2022 23:00-10.14C-10.14C78689пасмурно
05.12.2022 02:00-11.95C-11.95C78691облачно с прояснениями
05.12.2022 05:00-12.65C-12.65C78691облачно с прояснениями
05.12.2022 08:00-13.05C-13.05C78491пасмурно
05.12.2022 11:00-12.66C-12.66C78490пасмурно
05.12.2022 14:00-9.01C-9.01C78384пасмурно
05.12.2022 17:00-8.29C-8.29C78187пасмурно
05.12.2022 20:00-9.76C-9.76C78090пасмурно
05.12.2022 23:00-9.42C-9.42C78089пасмурно
06.12.2022 02:00-9.33C-9.33C77988пасмурно
06.12.2022 05:00-9.81C-9.81C77788пасмурно
06.12.2022 08:00-10.02C-10.02C77787пасмурно
06.12.2022 11:00-9.99C-9.99C77685пасмурно
06.12.2022 14:00-7.57C-7.57C77580пасмурно
06.12.2022 17:00-7.31C-7.31C77481пасмурно
06.12.2022 20:00-8.87C-8.87C77485пасмурно
06.12.2022 23:00-8.93C-8.93C77483пасмурно
07.12.2022 02:00-9.38C-9.38C77482пасмурно
07.12.2022 05:00-9.63C-9.63C77482пасмурно
07.12.2022 08:00-10.65C-10.65C77485облачно с прояснениями
07.12.2022 11:00-10.7C-10.7C77483облачно с прояснениями
07.12.2022 14:00-7.81C-7.81C77379небольшая облачность
07.12.2022 17:00-7.33C-7.33C77384небольшая облачность
07.12.2022 20:00-8.54C-8.54C77289ясно
07.12.2022 23:00-9.13C-9.13C77287ясно
08.12.2022 02:00-9.57C-9.57C77286ясно
08.12.2022 05:00-9.82C-9.82C77187ясно
08.12.2022 08:00-9.34C-9.34C77189облачно с прояснениями
08.12.2022 11:00-8.21C-8.21C77190пасмурно
08.12.2022 14:00-6.55C-6.55C77191пасмурно
08.12.2022 17:00-5.83C-5.83C77092пасмурно
08.12.2022 20:00-5.73C-5.73C77094небольшой снег
08.12.2022 23:00-5.21C-5.21C77095небольшой снег
09.12.2022 02:00-4.6C-4.6C77094небольшой снег
09.12.2022 05:00-4.44C-4.44C77096небольшой снег
09.12.2022 08:00-3.92C-3.92C76996небольшой снег
09.12.2022 11:00-3.55C-3.55C76895небольшой снег
Дата и время наблюдения: 04.12.2022 13:56:36